createdAt,value
2018-02-09T00:01:05.827Z,100.43
2018-02-09T00:03:33.563Z,101.70
2018-02-09T00:06:01.043Z,97.07
2018-02-09T00:08:28.503Z,90.03
2018-02-09T00:10:56.242Z,91.77
2018-02-09T00:13:23.912Z,99.00
2018-02-09T00:15:51.391Z,100.63
2018-02-09T00:18:18.859Z,90.23
2018-02-09T00:20:46.322Z,94.43
2018-02-09T00:23:13.782Z,93.80
2018-02-09T00:25:41.284Z,88.60
2018-02-09T00:28:08.751Z,87.47
2018-02-09T00:30:36.423Z,88.47
2018-02-09T00:33:03.967Z,88.40
2018-02-09T00:35:31.438Z,91.07
2018-02-09T00:37:59.126Z,95.93
2018-02-09T00:40:26.592Z,87.63
2018-02-09T00:42:54.099Z,90.50
2018-02-09T00:45:21.579Z,81.73
2018-02-09T00:47:49.313Z,93.17
2018-02-09T00:50:16.786Z,97.70
2018-02-09T00:52:44.538Z,92.63
2018-02-09T00:55:12.204Z,89.60
2018-02-09T00:57:39.702Z,92.87
2018-02-09T01:00:07.155Z,93.00
2018-02-09T01:02:34.682Z,102.27
2018-02-09T01:05:02.295Z,94.47
2018-02-09T01:07:29.905Z,93.87
2018-02-09T01:09:57.366Z,94.20
2018-02-09T01:12:25.032Z,92.80
2018-02-09T01:14:52.510Z,91.10
2018-02-09T01:17:19.987Z,85.47
2018-02-09T01:19:47.485Z,94.90
2018-02-09T01:22:14.959Z,91.87
2018-02-09T01:24:42.439Z,96.27
2018-02-09T01:27:10.079Z,90.27
2018-02-09T01:29:37.542Z,89.17
2018-02-09T01:32:05.044Z,87.70
2018-02-09T01:34:32.854Z,82.70
2018-02-09T01:37:00.324Z,85.03
2018-02-09T01:39:27.792Z,86.60
2018-02-09T01:41:55.439Z,89.90
2018-02-09T01:44:22.915Z,87.33
2018-02-09T01:46:50.427Z,84.33
2018-02-09T01:49:17.900Z,88.00
2018-02-09T01:51:45.647Z,83.10
2018-02-09T01:54:13.102Z,93.63
2018-02-09T01:56:40.789Z,88.27
2018-02-09T01:59:08.261Z,81.03
2018-02-09T02:01:35.731Z,83.07
2018-02-09T02:04:03.191Z,79.73
2018-02-09T02:06:30.679Z,90.13
2018-02-09T02:08:58.455Z,90.47
2018-02-09T02:11:26.216Z,89.13
2018-02-09T02:13:53.674Z,91.37
2018-02-09T02:16:21.443Z,82.83
2018-02-09T02:18:48.908Z,92.87
2018-02-09T02:21:17.263Z,89.90
2018-02-09T02:23:44.742Z,99.03
2018-02-09T02:26:12.216Z,87.57
2018-02-09T02:28:39.952Z,91.20
2018-02-09T02:31:07.423Z,92.10
2018-02-09T02:33:35.163Z,94.50
2018-02-09T02:36:04.155Z,90.00
2018-02-09T02:38:31.615Z,93.17
2018-02-09T02:40:59.081Z,94.63
2018-02-09T02:43:26.835Z,89.33
2018-02-09T02:45:54.509Z,91.63
2018-02-09T02:48:22.055Z,93.80
2018-02-09T02:50:49.823Z,101.97
2018-02-09T02:53:17.588Z,91.07
2018-02-09T02:55:45.052Z,98.80
2018-02-09T02:58:12.528Z,93.77
2018-02-09T03:00:40.263Z,90.43
2018-02-09T03:03:07.908Z,95.03
2018-02-09T03:05:35.379Z,85.20
2018-02-09T03:08:02.944Z,95.43
2018-02-09T03:10:30.411Z,88.63
2018-02-09T03:12:57.878Z,88.07
2018-02-09T03:15:25.488Z,82.40
2018-02-09T03:17:53.002Z,90.50
2018-02-09T03:20:20.498Z,85.60
2018-02-09T03:22:47.985Z,86.87
2018-02-09T03:25:15.447Z,92.60
2018-02-09T03:27:42.921Z,97.13
2018-02-09T03:30:10.582Z,80.97
2018-02-09T03:32:38.116Z,88.30
2018-02-09T03:35:05.595Z,86.87
2018-02-09T03:37:33.343Z,82.53
2018-02-09T03:40:00.854Z,87.37
2018-02-09T03:42:28.320Z,90.17
2018-02-09T03:44:56.020Z,92.80
2018-02-09T03:47:23.803Z,93.67
2018-02-09T03:49:51.294Z,92.43
2018-02-09T03:52:19.003Z,91.97
2018-02-09T03:54:46.765Z,90.33
2018-02-09T03:57:14.235Z,87.20
2018-02-09T03:59:41.717Z,91.93
2018-02-09T04:02:09.176Z,97.10
2018-02-09T04:04:36.686Z,92.40
2018-02-09T04:07:04.198Z,95.17
2018-02-09T04:09:31.674Z,85.97
2018-02-09T04:11:59.176Z,88.83
2018-02-09T04:14:26.633Z,91.13
2018-02-09T04:16:54.115Z,88.47
2018-02-09T04:19:21.582Z,93.30
2018-02-09T04:21:49.074Z,89.60
2018-02-09T04:24:16.539Z,96.50
2018-02-09T04:26:44.013Z,90.07
2018-02-09T04:29:11.838Z,89.40
2018-02-09T04:31:39.319Z,92.33
2018-02-09T04:34:06.995Z,89.27
2018-02-09T04:36:34.667Z,89.20
2018-02-09T04:39:02.147Z,99.03
2018-02-09T04:41:29.602Z,85.20
2018-02-09T04:43:57.079Z,90.67
2018-02-09T04:46:24.550Z,91.33
2018-02-09T04:48:52.035Z,90.97
2018-02-09T04:51:19.494Z,92.77
2018-02-09T04:53:46.971Z,93.00
2018-02-09T04:56:14.715Z,92.17
2018-02-09T04:58:42.478Z,85.73
2018-02-09T05:01:09.957Z,93.20
2018-02-09T05:03:37.703Z,92.33
2018-02-09T05:06:05.158Z,85.77
2018-02-09T05:08:32.920Z,85.40
2018-02-09T05:11:00.387Z,102.10
2018-02-09T05:13:28.726Z,89.10
2018-02-09T05:15:56.189Z,93.10
2018-02-09T05:18:23.770Z,86.97
2018-02-09T05:20:51.245Z,89.83
2018-02-09T05:23:19.479Z,92.53
2018-02-09T05:25:47.264Z,89.40
2018-02-09T05:28:15.034Z,103.60
2018-02-09T05:30:42.514Z,88.23
2018-02-09T05:33:10.255Z,95.03
2018-02-09T05:35:37.727Z,96.13
2018-02-09T05:38:05.356Z,90.60
2018-02-09T05:40:32.823Z,88.00
2018-02-09T05:43:00.316Z,97.03
2018-02-09T05:45:27.800Z,102.07
2018-02-09T05:47:55.485Z,88.83
2018-02-09T05:50:22.966Z,89.43
2018-02-09T05:52:50.527Z,87.70
2018-02-09T05:55:18.160Z,94.73
2018-02-09T05:57:45.621Z,94.73
2018-02-09T06:00:13.221Z,91.40
2018-02-09T06:02:40.692Z,89.27
2018-02-09T06:05:08.391Z,98.33
2018-02-09T06:07:35.875Z,99.20
2018-02-09T06:10:03.361Z,98.30
2018-02-09T06:12:31.029Z,94.80
2018-02-09T06:14:58.491Z,93.83
2018-02-09T06:17:25.968Z,103.83
2018-02-09T06:19:53.471Z,105.13
2018-02-09T06:22:21.223Z,95.77
2018-02-09T06:24:48.867Z,91.73
2018-02-09T06:27:16.338Z,96.87
2018-02-09T06:29:43.899Z,102.73
2018-02-09T06:32:11.363Z,89.27
2018-02-09T06:34:39.023Z,90.67
2018-02-09T06:37:06.499Z,94.67
2018-02-09T06:39:33.975Z,93.43
2018-02-09T06:42:01.491Z,94.73
2018-02-09T06:44:29.128Z,95.10
2018-02-09T06:46:56.715Z,103.57
2018-02-09T06:49:24.246Z,109.40
2018-02-09T06:51:51.706Z,98.37
2018-02-09T06:54:19.327Z,100.80
2018-02-09T06:56:46.794Z,94.43
2018-02-09T06:59:14.274Z,106.70
2018-02-09T07:01:41.751Z,105.20
2018-02-09T07:04:09.243Z,103.03
2018-02-09T07:06:36.705Z,101.87
2018-02-09T07:09:04.436Z,102.03
2018-02-09T07:11:31.892Z,96.67
2018-02-09T07:13:59.376Z,107.17
2018-02-09T07:16:26.835Z,99.93
2018-02-09T07:18:54.562Z,100.30
2018-02-09T07:21:22.331Z,102.43
2018-02-09T07:23:50.091Z,104.33
2018-02-09T07:26:18.427Z,94.43
2018-02-09T07:28:45.931Z,95.30
2018-02-09T07:31:13.595Z,99.40
2018-02-09T07:33:41.197Z,110.20
2018-02-09T07:36:08.665Z,126.30
2018-02-09T07:38:36.151Z,130.10
2018-02-09T07:41:03.615Z,122.27
2018-02-09T07:43:31.210Z,123.80
2018-02-09T07:45:58.687Z,104.27
2018-02-09T07:48:26.213Z,102.43
2018-02-09T07:50:53.858Z,104.83
2018-02-09T07:53:22.135Z,103.00
2018-02-09T07:55:49.799Z,102.53
2018-02-09T07:58:17.316Z,91.10
2018-02-09T08:00:44.788Z,97.60
2018-02-09T08:03:12.471Z,97.03
2018-02-09T08:05:40.166Z,95.80
2018-02-09T08:08:07.637Z,93.17
2018-02-09T08:10:36.013Z,107.20
2018-02-09T08:13:03.531Z,103.57
2018-02-09T08:15:31.291Z,107.87
2018-02-09T08:17:58.759Z,98.10
2018-02-09T08:20:26.986Z,106.53
2018-02-09T08:22:54.511Z,107.00
2018-02-09T08:25:22.041Z,102.63
2018-02-09T08:27:49.530Z,108.23
2018-02-09T08:30:17.115Z,104.87
2018-02-09T08:32:44.864Z,105.53
2018-02-09T08:35:12.380Z,109.33
2018-02-09T08:37:39.939Z,113.73
2018-02-09T08:40:07.622Z,119.13
2018-02-09T08:42:35.155Z,106.90
2018-02-09T08:45:02.623Z,107.67
2018-02-09T08:47:30.366Z,107.67
2018-02-09T08:49:58.144Z,108.07
2018-02-09T08:52:25.603Z,102.97
2018-02-09T08:54:53.063Z,115.27
2018-02-09T08:57:20.571Z,103.20
2018-02-09T08:59:48.186Z,108.33
2018-02-09T09:02:15.663Z,120.37
2018-02-09T09:04:43.134Z,132.73
2018-02-09T09:07:10.601Z,109.13
2018-02-09T09:09:38.080Z,120.97
2018-02-09T09:12:05.547Z,116.70
2018-02-09T09:14:33.371Z,107.87
2018-02-09T09:17:01.077Z,121.87
2018-02-09T09:19:28.847Z,132.77
2018-02-09T09:21:56.341Z,119.67
2018-02-09T09:24:24.067Z,129.50
2018-02-09T09:26:51.831Z,115.53
2018-02-09T09:29:19.313Z,115.27
2018-02-09T09:31:46.788Z,109.50
2018-02-09T09:34:14.267Z,125.33
2018-02-09T09:36:41.883Z,112.67
2018-02-09T09:39:09.423Z,111.00
2018-02-09T09:41:36.882Z,103.73
2018-02-09T09:44:04.506Z,113.70
2018-02-09T09:46:31.979Z,115.30
2018-02-09T09:48:59.947Z,109.97
2018-02-09T09:51:27.610Z,107.70
2018-02-09T09:53:55.072Z,115.83
2018-02-09T09:56:22.575Z,119.63
2018-02-09T09:58:50.215Z,109.80
2018-02-09T10:01:36.303Z,103.70
2018-02-09T10:04:03.797Z,106.33
2018-02-09T10:06:31.331Z,103.93
2018-02-09T10:08:58.824Z,107.47
2018-02-09T10:11:26.330Z,113.07
2018-02-09T10:13:53.795Z,112.07
2018-02-09T10:16:21.555Z,110.37
2018-02-09T10:18:49.020Z,114.70
2018-02-09T10:21:16.767Z,105.73
2018-02-09T10:23:44.222Z,116.00
2018-02-09T10:26:11.983Z,110.70
2018-02-09T10:28:39.632Z,102.90
2018-02-09T10:31:07.103Z,125.17
2018-02-09T10:33:34.567Z,106.00
2018-02-09T10:36:02.140Z,109.17
2018-02-09T10:38:29.801Z,115.63
2018-02-09T10:40:57.307Z,110.17
2018-02-09T10:43:24.781Z,125.83
2018-02-09T10:45:52.250Z,118.77
2018-02-09T10:48:19.720Z,115.77
2018-02-09T10:50:47.194Z,114.47
2018-02-09T10:53:14.923Z,109.17
2018-02-09T10:55:42.379Z,124.83
2018-02-09T10:58:09.854Z,135.37
2018-02-09T11:00:43.051Z,133.17
2018-02-09T11:03:10.597Z,123.37
2018-02-09T11:05:38.111Z,128.33
2018-02-09T11:08:05.590Z,121.87
2018-02-09T11:10:33.054Z,132.03
2018-02-09T11:13:00.568Z,141.03
2018-02-09T11:15:28.016Z,130.60
2018-02-09T11:17:55.762Z,136.57
2018-02-09T11:20:24.024Z,127.17
2018-02-09T11:22:51.491Z,124.80
2018-02-09T11:25:18.964Z,130.80
2018-02-09T11:27:46.723Z,127.27
2018-02-09T11:30:14.187Z,135.80
2018-02-09T11:32:41.654Z,124.87
2018-02-09T11:35:09.292Z,116.83
2018-02-09T11:37:36.755Z,126.43
2018-02-09T11:40:04.304Z,123.97
2018-02-09T11:42:31.746Z,134.00
2018-02-09T11:44:59.230Z,120.43
2018-02-09T11:47:26.707Z,125.93
2018-02-09T11:49:54.185Z,122.70
2018-02-09T11:52:21.648Z,125.40
2018-02-09T11:54:50.145Z,120.47
2018-02-09T11:57:17.763Z,116.17
2018-02-09T11:59:45.251Z,127.63
2018-02-09T12:02:12.943Z,130.77
2018-02-09T12:04:40.686Z,119.90
2018-02-09T12:07:08.146Z,114.60
2018-02-09T12:09:35.915Z,115.47
2018-02-09T12:12:03.677Z,129.07
2018-02-09T12:14:31.194Z,118.17
2018-02-09T12:16:58.804Z,125.00
2018-02-09T12:19:26.351Z,114.60
2018-02-09T12:21:54.924Z,116.37
2018-02-09T12:24:22.415Z,127.90
2018-02-09T12:26:49.886Z,117.50
2018-02-09T12:29:17.347Z,112.33
2018-02-09T12:31:44.859Z,122.80
2018-02-09T12:34:12.503Z,123.83
2018-02-09T12:36:40.084Z,124.70
2018-02-09T12:39:07.752Z,113.43
2018-02-09T12:41:36.134Z,93.80
2018-02-09T12:44:03.635Z,97.60
2018-02-09T12:46:31.095Z,96.23
2018-02-09T12:48:58.559Z,102.13
2018-02-09T12:51:26.067Z,96.90
2018-02-09T12:53:53.811Z,91.63
2018-02-09T12:56:21.267Z,96.47
2018-02-09T12:58:48.924Z,92.27
2018-02-09T13:01:16.415Z,89.10
2018-02-09T13:03:43.883Z,93.03
2018-02-09T13:06:11.335Z,97.07
2018-02-09T13:08:38.799Z,93.90
2018-02-09T13:11:06.255Z,86.77
2018-02-09T13:13:33.776Z,92.70
2018-02-09T13:16:01.240Z,92.40
2018-02-09T13:18:48.354Z,94.50
2018-02-09T13:21:15.815Z,94.50
2018-02-09T13:23:55.021Z,88.13
2018-02-09T13:26:22.701Z,87.97
2018-02-09T13:28:59.067Z,89.33
2018-02-09T13:31:26.822Z,90.87
2018-02-09T13:33:54.393Z,88.80
2018-02-09T13:36:33.566Z,92.80
2018-02-09T13:39:01.109Z,91.47
2018-02-09T13:41:28.635Z,92.03
2018-02-09T13:43:56.148Z,85.67
2018-02-09T13:46:23.783Z,91.37
2018-02-09T13:48:51.239Z,91.20
2018-02-09T13:51:18.773Z,86.30
2018-02-09T13:53:46.228Z,89.73
2018-02-09T13:56:13.699Z,88.37
2018-02-09T13:58:41.160Z,92.37
2018-02-09T14:01:09.524Z,79.07
2018-02-09T14:03:37.139Z,89.37
2018-02-09T14:06:04.668Z,84.07
2018-02-09T14:08:32.128Z,94.90
2018-02-09T14:10:59.651Z,86.57
2018-02-09T14:13:27.107Z,87.13
2018-02-09T14:15:54.615Z,87.20
2018-02-09T14:18:22.254Z,88.70
2018-02-09T14:20:49.787Z,82.73
2018-02-09T14:23:17.552Z,93.87
2018-02-09T14:25:45.015Z,84.47
2018-02-09T14:28:12.670Z,93.17
2018-02-09T14:30:40.233Z,94.23
2018-02-09T14:33:07.688Z,96.80
2018-02-09T14:35:35.168Z,85.37
2018-02-09T14:38:02.826Z,91.80
2018-02-09T14:40:30.355Z,87.67
2018-02-09T14:42:57.822Z,80.00
2018-02-09T14:45:25.575Z,82.83
2018-02-09T14:47:53.220Z,82.60
2018-02-09T14:50:20.799Z,83.53
2018-02-09T14:52:48.446Z,87.17
2018-02-09T14:55:15.895Z,83.60
2018-02-09T14:57:43.386Z,78.63
2018-02-09T15:00:10.847Z,77.77
2018-02-09T15:02:38.309Z,88.40
2018-02-09T15:05:05.844Z,85.07
2018-02-09T15:07:33.308Z,85.27
2018-02-09T15:10:00.811Z,85.83
2018-02-09T15:12:28.280Z,86.47
2018-02-09T15:14:55.855Z,82.43
2018-02-09T15:17:23.331Z,85.03
2018-02-09T15:19:50.783Z,83.80
2018-02-09T15:22:18.264Z,84.80
2018-02-09T15:24:45.799Z,80.17
2018-02-09T15:27:13.264Z,80.43
2018-02-09T15:29:41.022Z,99.93
2018-02-09T15:32:08.483Z,97.93
2018-02-09T15:34:36.243Z,91.07
2018-02-09T15:37:03.778Z,85.57
2018-02-09T15:39:31.247Z,83.70
2018-02-09T15:41:58.702Z,84.23
2018-02-09T15:44:26.167Z,80.27
2018-02-09T15:46:53.707Z,84.43
2018-02-09T15:49:21.286Z,84.70
2018-02-09T15:51:49.051Z,81.60
2018-02-09T15:54:16.518Z,87.93
2018-02-09T15:56:43.975Z,87.67
2018-02-09T15:59:11.452Z,90.50
2018-02-09T16:01:40.046Z,85.63
2018-02-09T16:04:08.660Z,78.33
2018-02-09T16:06:36.230Z,90.37
2018-02-09T16:09:04.510Z,82.70
2018-02-09T16:11:32.058Z,80.70
2018-02-09T16:13:59.864Z,79.53
2018-02-09T16:16:27.424Z,88.07
2018-02-09T16:18:55.865Z,83.23
2018-02-09T16:21:23.411Z,84.10
2018-02-09T16:23:50.967Z,84.70
2018-02-09T16:26:18.544Z,79.73
2018-02-09T16:28:47.873Z,83.13
2018-02-09T16:31:15.441Z,84.03
2018-02-09T16:33:43.063Z,82.43
2018-02-09T16:36:12.381Z,85.73
2018-02-09T16:38:39.936Z,85.13
2018-02-09T16:41:08.292Z,82.60
2018-02-09T16:43:35.810Z,81.20
2018-02-09T16:46:03.340Z,82.37
2018-02-09T16:48:30.868Z,98.13
2018-02-09T16:50:58.480Z,85.63
2018-02-09T16:53:26.077Z,85.23
2018-02-09T16:55:53.658Z,92.30
2018-02-09T16:58:21.178Z,85.00
2018-02-09T17:00:48.697Z,83.70
2018-02-09T17:03:16.257Z,83.27
2018-02-09T17:05:43.832Z,83.53
2018-02-09T17:08:11.418Z,83.13
2018-02-09T17:10:38.997Z,86.77
2018-02-09T17:13:07.336Z,88.03
2018-02-09T17:15:34.869Z,89.70
2018-02-09T17:18:02.419Z,89.47
2018-02-09T17:20:29.943Z,83.57
2018-02-09T17:22:57.531Z,82.93
2018-02-09T17:25:25.053Z,78.37
2018-02-09T17:27:52.732Z,88.83
2018-02-09T17:30:20.571Z,88.03
2018-02-09T17:32:48.110Z,84.07
2018-02-09T17:35:16.421Z,89.63
2018-02-09T17:37:43.920Z,81.70
2018-02-09T17:40:11.415Z,86.00
2018-02-09T17:42:39.724Z,88.17
2018-02-09T17:45:08.040Z,90.53
2018-02-09T17:47:35.746Z,85.73
2018-02-09T17:50:03.316Z,89.57
2018-02-09T17:52:30.843Z,93.03
2018-02-09T17:54:59.165Z,93.30
2018-02-09T17:57:30.108Z,87.57
2018-02-09T17:59:58.608Z,93.27
2018-02-09T18:02:26.401Z,84.43
2018-02-09T18:04:53.949Z,94.20
2018-02-09T18:07:23.203Z,93.23
2018-02-09T18:09:50.771Z,85.53
2018-02-09T18:12:18.839Z,83.13
2018-02-09T18:14:46.588Z,92.00
2018-02-09T18:17:14.837Z,91.40
2018-02-09T18:19:42.427Z,92.33
2018-02-09T18:22:09.964Z,86.37
2018-02-09T18:24:37.501Z,91.57
2018-02-09T18:27:05.068Z,88.13
2018-02-09T18:29:32.628Z,92.37
2018-02-09T18:32:00.147Z,88.00
2018-02-09T18:34:27.744Z,94.50
2018-02-09T18:36:56.044Z,92.20
2018-02-09T18:39:23.643Z,90.60
2018-02-09T18:41:51.150Z,84.83
2018-02-09T18:44:18.722Z,90.00
2018-02-09T18:46:46.956Z,97.70
2018-02-09T18:49:14.471Z,94.87
2018-02-09T18:51:41.984Z,90.93
2018-02-09T18:54:09.509Z,78.83
2018-02-09T18:56:37.033Z,86.13
2018-02-09T18:59:04.634Z,90.03
2018-02-09T19:01:33.557Z,95.87
2018-02-09T19:04:01.847Z,86.33
2018-02-09T19:06:29.783Z,87.73
2018-02-09T19:08:57.396Z,81.93
2018-02-09T19:11:24.971Z,95.10
2018-02-09T19:13:53.548Z,90.00
2018-02-09T19:16:22.566Z,93.47
2018-02-09T19:18:50.106Z,91.97
2018-02-09T19:21:18.309Z,91.63
2018-02-09T19:23:45.839Z,89.37
2018-02-09T19:26:13.364Z,92.17
2018-02-09T19:28:40.896Z,103.83
2018-02-09T19:31:08.391Z,92.83
2018-02-09T19:33:36.329Z,92.23
2018-02-09T19:36:03.881Z,92.30
2018-02-09T19:38:31.670Z,85.97
2018-02-09T19:40:59.190Z,88.47
2018-02-09T19:43:26.764Z,95.57
2018-02-09T19:45:54.347Z,85.10
2018-02-09T19:48:21.947Z,90.43
2018-02-09T19:50:49.509Z,92.23
2018-02-09T19:53:17.050Z,88.00
2018-02-09T19:55:44.561Z,99.40
2018-02-09T19:58:13.769Z,97.43
2018-02-09T20:00:41.304Z,92.17
2018-02-09T20:03:09.886Z,87.83
2018-02-09T20:05:38.236Z,88.00
2018-02-09T20:08:07.723Z,91.20
2018-02-09T20:10:35.279Z,95.90
2018-02-09T20:13:02.865Z,92.63
2018-02-09T20:15:30.369Z,102.37
2018-02-09T20:17:57.924Z,93.70
2018-02-09T20:20:25.505Z,91.20
2018-02-09T20:22:53.082Z,91.83
2018-02-09T20:25:20.652Z,98.57
2018-02-09T20:27:48.176Z,91.53
2018-02-09T20:30:16.475Z,90.13
2018-02-09T20:32:46.923Z,96.93
2018-02-09T20:35:14.440Z,90.53
2018-02-09T20:37:42.021Z,93.63
2018-02-09T20:40:09.545Z,98.60
2018-02-09T20:42:37.910Z,91.40
2018-02-09T20:45:06.319Z,89.23
2018-02-09T20:47:33.839Z,87.90
2018-02-09T20:50:01.413Z,111.83
2018-02-09T20:52:29.016Z,101.13
2018-02-09T20:54:56.577Z,98.60
2018-02-09T20:57:24.108Z,93.93
2018-02-09T20:59:52.887Z,94.03
2018-02-09T21:02:21.869Z,92.43
2018-02-09T21:04:49.404Z,98.13
2018-02-09T21:07:17.009Z,93.80
2018-02-09T21:09:44.534Z,94.63
2018-02-09T21:12:12.034Z,99.60
2018-02-09T21:14:39.543Z,96.80
2018-02-09T21:17:07.048Z,102.77
2018-02-09T21:19:34.536Z,96.43
2018-02-09T21:22:02.085Z,102.93
2018-02-09T21:24:29.610Z,102.17
2018-02-09T21:26:58.733Z,96.23
2018-02-09T21:29:26.671Z,96.93
2018-02-09T21:31:54.953Z,97.83
2018-02-09T21:34:22.546Z,107.63
2018-02-09T21:36:50.297Z,97.87
2018-02-09T21:39:18.491Z,110.17
2018-02-09T21:41:46.018Z,122.10
2018-02-09T21:44:13.574Z,104.17
2018-02-09T21:46:42.838Z,113.33
2018-02-09T21:49:10.694Z,108.40
2018-02-09T21:51:38.311Z,112.00
2018-02-09T21:54:05.838Z,101.17
2018-02-09T21:56:33.401Z,100.00
2018-02-09T21:59:02.210Z,98.37
2018-02-09T22:01:29.788Z,97.83
2018-02-09T22:03:58.141Z,96.30
2018-02-09T22:06:26.588Z,101.63
2018-02-09T22:08:54.035Z,96.60
2018-02-09T22:11:21.510Z,97.60
2018-02-09T22:13:48.983Z,105.63
2018-02-09T22:16:16.530Z,107.40
2018-02-09T22:18:44.162Z,95.90
2018-02-09T22:21:11.646Z,98.87
2018-02-09T22:23:39.191Z,103.90
2018-02-09T22:26:06.663Z,98.90
2018-02-09T22:28:34.441Z,102.70
2018-02-09T22:31:01.891Z,115.93
2018-02-09T22:33:29.535Z,103.43
2018-02-09T22:35:57.105Z,104.50
2018-02-09T22:38:24.854Z,107.53
2018-02-09T22:40:52.615Z,107.97
2018-02-09T22:43:20.079Z,98.37
2018-02-09T22:45:47.556Z,98.67
2018-02-09T22:48:15.295Z,101.57
2018-02-09T22:50:42.955Z,92.03
2018-02-09T22:53:10.515Z,95.13
2018-02-09T22:55:38.285Z,98.80
2018-02-09T22:58:06.047Z,99.57
2018-02-09T23:00:33.811Z,97.73
2018-02-09T23:03:01.576Z,103.30
2018-02-09T23:05:29.391Z,99.60
2018-02-09T23:07:57.019Z,106.03
2018-02-09T23:10:24.483Z,98.67
2018-02-09T23:12:51.938Z,96.23
2018-02-09T23:15:19.485Z,98.83
2018-02-09T23:17:47.238Z,95.10
2018-02-09T23:20:14.719Z,105.27
2018-02-09T23:22:42.179Z,105.17
2018-02-09T23:25:09.915Z,101.80
2018-02-09T23:27:37.395Z,111.67
2018-02-09T23:30:05.004Z,95.40
2018-02-09T23:32:32.619Z,96.20
2018-02-09T23:35:00.259Z,95.40
2018-02-09T23:37:28.615Z,92.53
2018-02-09T23:39:56.148Z,97.80
2018-02-09T23:42:23.652Z,90.70
2018-02-09T23:44:51.127Z,100.70
2018-02-09T23:47:18.723Z,99.27
2018-02-09T23:49:46.327Z,99.43
2018-02-09T23:52:13.811Z,105.30
2018-02-09T23:54:41.266Z,98.40
2018-02-09T23:57:08.731Z,92.87
2018-02-09T23:59:36.607Z,92.73
